createdAt,value
2023-03-29T00:00:08.800Z,67
2023-03-29T00:00:36.054Z,67
2023-03-29T00:00:56.293Z,67
2023-03-29T00:01:35.950Z,67
2023-03-29T00:01:59.720Z,67
2023-03-29T00:02:31.941Z,67
2023-03-29T00:03:04.217Z,67
2023-03-29T00:03:35.834Z,67
2023-03-29T00:04:08.108Z,67
2023-03-29T00:04:36.067Z,67
2023-03-29T00:04:55.878Z,67
2023-03-29T00:05:28.816Z,67
2023-03-29T00:06:00.004Z,67
2023-03-29T00:06:31.941Z,67
2023-03-29T00:07:04.290Z,67
2023-03-29T00:07:35.787Z,67
2023-03-29T00:08:07.862Z,67
2023-03-29T00:08:36.026Z,67
2023-03-29T00:08:55.858Z,67
2023-03-29T00:09:27.735Z,67
2023-03-29T00:09:59.833Z,67
2023-03-29T00:10:32.311Z,68
2023-03-29T00:11:04.312Z,68
2023-03-29T00:11:35.812Z,68
2023-03-29T00:12:07.786Z,67
2023-03-29T00:12:35.950Z,67
2023-03-29T00:12:55.759Z,67
2023-03-29T00:13:27.770Z,67
2023-03-29T00:13:59.834Z,67
2023-03-29T00:14:31.981Z,67
2023-03-29T00:15:05.878Z,67
2023-03-29T00:15:36.300Z,67
2023-03-29T00:16:07.818Z,67
2023-03-29T00:16:36.042Z,67
2023-03-29T00:16:55.999Z,67
2023-03-29T00:17:27.810Z,67
2023-03-29T00:17:59.946Z,67
2023-03-29T00:18:31.817Z,67
2023-03-29T00:19:03.979Z,67
2023-03-29T00:19:35.844Z,67
2023-03-29T00:20:08.345Z,67
2023-03-29T00:20:35.982Z,67
2023-03-29T00:20:56.111Z,67
2023-03-29T00:21:27.700Z,68
2023-03-29T00:21:59.687Z,68
2023-03-29T00:22:31.838Z,68
2023-03-29T00:23:04.087Z,68
2023-03-29T00:23:35.757Z,68
2023-03-29T00:24:07.943Z,67
2023-03-29T00:24:36.098Z,67
2023-03-29T00:24:56.334Z,67
2023-03-29T00:25:29.056Z,67
2023-03-29T00:26:00.075Z,68
2023-03-29T00:26:32.150Z,68
2023-03-29T00:27:04.029Z,68
2023-03-29T00:27:35.757Z,68
2023-03-29T00:28:07.903Z,68
2023-03-29T00:28:36.658Z,68
2023-03-29T00:28:56.355Z,68
2023-03-29T00:29:27.696Z,68
2023-03-29T00:29:59.783Z,68
2023-03-29T00:30:32.990Z,68
2023-03-29T00:31:04.474Z,68
2023-03-29T00:31:35.977Z,69
2023-03-29T00:32:07.966Z,69
2023-03-29T00:32:36.086Z,69
2023-03-29T00:32:55.855Z,70
2023-03-29T00:33:27.979Z,70
2023-03-29T00:34:00.175Z,69
2023-03-29T00:34:31.893Z,69
2023-03-29T00:35:05.608Z,69
2023-03-29T00:35:35.764Z,69
2023-03-29T00:36:07.974Z,69
2023-03-29T00:36:37.287Z,69
2023-03-29T00:36:56.916Z,69
2023-03-29T00:37:27.896Z,69
2023-03-29T00:38:00.028Z,69
2023-03-29T00:38:31.940Z,69
2023-03-29T00:39:04.042Z,69
2023-03-29T00:39:35.734Z,69
2023-03-29T00:40:08.467Z,69
2023-03-29T00:40:36.034Z,69
2023-03-29T00:40:56.259Z,69
2023-03-29T00:41:27.674Z,69
2023-03-29T00:41:59.927Z,69
2023-03-29T00:42:31.931Z,69
2023-03-29T00:43:04.445Z,69
2023-03-29T00:43:36.663Z,69
2023-03-29T00:44:07.931Z,69
2023-03-29T00:44:36.027Z,69
2023-03-29T00:44:55.793Z,69
2023-03-29T00:45:28.717Z,69
2023-03-29T00:45:59.897Z,69
2023-03-29T00:46:32.022Z,69
2023-03-29T00:47:03.951Z,69
2023-03-29T00:47:36.101Z,69
2023-03-29T00:48:08.336Z,69
2023-03-29T00:48:36.075Z,69
2023-03-29T00:48:55.935Z,69
2023-03-29T00:49:27.655Z,69
2023-03-29T00:49:59.789Z,69
2023-03-29T00:50:32.300Z,69
2023-03-29T00:51:04.205Z,69
2023-03-29T00:51:35.806Z,69
2023-03-29T00:52:08.420Z,69
2023-03-29T00:52:36.166Z,69
2023-03-29T00:52:55.835Z,70
2023-03-29T00:53:27.821Z,70
2023-03-29T00:53:59.861Z,69
2023-03-29T00:54:31.903Z,69
2023-03-29T00:55:05.358Z,69
2023-03-29T00:55:35.855Z,69
2023-03-29T00:56:07.837Z,69
2023-03-29T00:56:36.925Z,69
2023-03-29T00:56:55.732Z,69
2023-03-29T00:57:27.853Z,69
2023-03-29T00:57:59.738Z,70
2023-03-29T00:58:31.817Z,70
2023-03-29T00:59:03.984Z,70
2023-03-29T00:59:35.861Z,70
2023-03-29T01:00:09.081Z,70
2023-03-29T01:00:36.313Z,70
2023-03-29T01:00:56.070Z,70
2023-03-29T01:01:27.645Z,70
2023-03-29T01:01:59.917Z,70
2023-03-29T01:02:31.999Z,71
2023-03-29T01:03:36.267Z,71
2023-03-29T01:04:07.831Z,71
2023-03-29T01:04:36.016Z,71
2023-03-29T01:04:56.054Z,71
2023-03-29T01:05:28.319Z,71
2023-03-29T01:05:59.927Z,71
2023-03-29T01:06:31.961Z,71
2023-03-29T01:07:04.104Z,71
2023-03-29T01:07:36.376Z,71
2023-03-29T01:08:07.988Z,71
2023-03-29T01:08:36.793Z,70
2023-03-29T01:08:55.810Z,70
2023-03-29T01:09:27.766Z,70
2023-03-29T01:09:59.728Z,70
2023-03-29T01:10:32.309Z,70
2023-03-29T01:11:04.443Z,70
2023-03-29T01:11:35.795Z,70
2023-03-29T01:12:07.844Z,70
2023-03-29T01:12:36.903Z,70
2023-03-29T01:12:55.834Z,70
2023-03-29T01:13:27.856Z,70
2023-03-29T01:13:59.800Z,71
2023-03-29T01:14:31.922Z,70
2023-03-29T01:15:06.124Z,71
2023-03-29T01:15:35.729Z,71
2023-03-29T01:16:07.913Z,71
2023-03-29T01:16:36.034Z,71
2023-03-29T01:16:55.915Z,71
2023-03-29T01:17:27.663Z,71
2023-03-29T01:18:00.043Z,71
2023-03-29T01:18:31.837Z,71
2023-03-29T01:19:04.048Z,70
2023-03-29T01:19:35.755Z,70
2023-03-29T01:20:08.332Z,70
2023-03-29T01:20:36.460Z,70
2023-03-29T01:20:56.179Z,70
2023-03-29T01:21:27.853Z,70
2023-03-29T01:22:15.782Z,69
2023-03-29T01:22:37.452Z,70
2023-03-29T01:23:04.017Z,70
2023-03-29T01:23:35.787Z,70
2023-03-29T01:24:07.880Z,69
2023-03-29T01:24:36.252Z,69
2023-03-29T01:24:55.756Z,69
2023-03-29T01:25:28.239Z,69
2023-03-29T01:25:59.751Z,68
2023-03-29T01:26:31.967Z,68
2023-03-29T01:27:04.068Z,68
2023-03-29T01:27:35.843Z,68
2023-03-29T01:28:07.985Z,68
2023-03-29T01:28:36.072Z,67
2023-03-29T01:28:55.883Z,67
2023-03-29T01:29:27.772Z,68
2023-03-29T01:29:59.809Z,68
2023-03-29T01:30:32.955Z,68
2023-03-29T01:31:04.267Z,67
2023-03-29T01:31:35.757Z,68
2023-03-29T01:32:07.797Z,67
2023-03-29T01:32:37.029Z,68
2023-03-29T01:32:55.893Z,68
2023-03-29T01:33:27.850Z,68
2023-03-29T01:33:59.702Z,68
2023-03-29T01:34:31.878Z,68
2023-03-29T01:35:06.151Z,68
2023-03-29T01:35:37.671Z,68
2023-03-29T01:36:07.792Z,68
2023-03-29T01:36:36.180Z,68
2023-03-29T01:36:55.926Z,67
2023-03-29T01:37:27.902Z,68
2023-03-29T01:38:00.064Z,68
2023-03-29T01:38:32.011Z,67
2023-03-29T01:39:04.035Z,67
2023-03-29T01:39:35.869Z,67
2023-03-29T01:40:08.489Z,67
2023-03-29T01:40:36.140Z,67
2023-03-29T01:40:56.158Z,67
2023-03-29T01:41:28.193Z,67
2023-03-29T01:41:59.930Z,68
2023-03-29T01:42:31.858Z,67
2023-03-29T01:43:04.107Z,68
2023-03-29T01:43:36.428Z,68
2023-03-29T01:44:07.878Z,68
2023-03-29T01:44:36.084Z,68
2023-03-29T01:44:55.723Z,68
2023-03-29T01:45:29.137Z,68
2023-03-29T01:45:59.846Z,68
2023-03-29T01:46:32.101Z,68
2023-03-29T01:47:04.065Z,68
2023-03-29T01:47:35.878Z,68
2023-03-29T01:48:07.886Z,68
2023-03-29T01:48:36.060Z,68
2023-03-29T01:48:55.826Z,68
2023-03-29T01:49:27.749Z,68
2023-03-29T01:50:00.044Z,69
2023-03-29T01:50:32.813Z,69
2023-03-29T01:51:04.367Z,69
2023-03-29T01:51:36.550Z,69
2023-03-29T01:52:07.881Z,69
2023-03-29T01:52:36.083Z,69
2023-03-29T01:52:55.892Z,69
2023-03-29T01:53:27.746Z,69
2023-03-29T01:54:00.189Z,69
2023-03-29T01:54:32.273Z,69
2023-03-29T01:55:05.413Z,69
2023-03-29T01:55:35.840Z,69
2023-03-29T01:56:07.716Z,69
2023-03-29T01:56:36.106Z,69
2023-03-29T01:56:55.866Z,69
2023-03-29T01:57:27.754Z,69
2023-03-29T01:57:59.806Z,69
2023-03-29T01:58:31.866Z,69
2023-03-29T01:59:04.345Z,69
2023-03-29T01:59:36.786Z,69
2023-03-29T02:00:09.004Z,69
2023-03-29T02:00:37.071Z,69
2023-03-29T02:00:56.401Z,69
2023-03-29T02:01:27.946Z,69
2023-03-29T02:02:00.274Z,69
2023-03-29T02:02:32.022Z,69
2023-03-29T02:03:04.250Z,69
2023-03-29T02:03:35.990Z,69
2023-03-29T02:04:07.935Z,69
2023-03-29T02:04:36.105Z,69
2023-03-29T02:04:55.821Z,69
2023-03-29T02:05:28.182Z,69
2023-03-29T02:05:59.789Z,69
2023-03-29T02:06:31.885Z,69
2023-03-29T02:07:03.993Z,69
2023-03-29T02:07:35.748Z,69
2023-03-29T02:08:07.812Z,69
2023-03-29T02:08:36.118Z,69
2023-03-29T02:08:55.807Z,69
2023-03-29T02:09:27.872Z,69
2023-03-29T02:10:00.788Z,69
2023-03-29T02:10:32.083Z,70
2023-03-29T02:11:04.466Z,70
2023-03-29T02:11:36.126Z,69
2023-03-29T02:12:07.934Z,70
2023-03-29T02:12:36.037Z,70
2023-03-29T02:12:55.889Z,70
2023-03-29T02:13:27.879Z,70
2023-03-29T02:13:59.916Z,69
2023-03-29T02:14:32.099Z,70
2023-03-29T02:15:06.468Z,69
2023-03-29T02:15:35.991Z,69
2023-03-29T02:16:08.042Z,69
2023-03-29T02:16:36.309Z,69
2023-03-29T02:16:55.911Z,69
2023-03-29T02:17:27.842Z,70
2023-03-29T02:17:59.901Z,70
2023-03-29T02:18:31.852Z,70
2023-03-29T02:19:04.234Z,70
2023-03-29T02:19:35.936Z,70
2023-03-29T02:20:08.593Z,70
2023-03-29T02:20:37.007Z,70
2023-03-29T02:20:56.400Z,70
2023-03-29T02:21:27.963Z,70
2023-03-29T02:21:59.765Z,70
2023-03-29T02:22:32.009Z,70
2023-03-29T02:23:04.271Z,70
2023-03-29T02:23:36.500Z,70
2023-03-29T02:24:07.968Z,70
2023-03-29T02:24:36.142Z,70
2023-03-29T02:24:56.048Z,70
2023-03-29T02:25:28.434Z,70
2023-03-29T02:25:59.850Z,70
2023-03-29T02:26:31.967Z,70
2023-03-29T02:27:04.073Z,71
2023-03-29T02:27:35.848Z,71
2023-03-29T02:28:07.962Z,71
2023-03-29T02:28:36.049Z,70
2023-03-29T02:28:55.883Z,70
2023-03-29T02:29:27.984Z,71
2023-03-29T02:29:59.816Z,71
2023-03-29T02:30:33.126Z,71
2023-03-29T02:31:04.565Z,71
2023-03-29T02:31:36.309Z,71
2023-03-29T02:32:08.038Z,71
2023-03-29T02:32:36.161Z,71
2023-03-29T02:32:55.975Z,71
2023-03-29T02:33:27.948Z,72
2023-03-29T02:33:59.797Z,72
2023-03-29T02:34:32.035Z,72
2023-03-29T02:35:05.916Z,72
2023-03-29T02:35:36.250Z,72
2023-03-29T02:36:07.975Z,72
2023-03-29T02:36:36.147Z,72
2023-03-29T02:36:56.021Z,72
2023-03-29T02:37:27.953Z,73
2023-03-29T02:37:59.916Z,72
2023-03-29T02:38:32.352Z,73
2023-03-29T02:39:04.172Z,73
2023-03-29T02:39:36.042Z,73
2023-03-29T02:40:08.772Z,73
2023-03-29T02:40:36.077Z,73
2023-03-29T02:40:56.910Z,73
2023-03-29T02:41:27.879Z,73
2023-03-29T02:41:59.826Z,73
2023-03-29T02:42:32.031Z,74
2023-03-29T02:43:04.242Z,73
2023-03-29T02:43:36.006Z,73
2023-03-29T02:44:07.965Z,73
2023-03-29T02:44:36.161Z,73
2023-03-29T02:44:56.316Z,73
2023-03-29T02:45:29.015Z,74
2023-03-29T02:45:59.942Z,74
2023-03-29T02:46:32.350Z,74
2023-03-29T02:47:04.354Z,74
2023-03-29T02:47:36.039Z,74
2023-03-29T02:48:08.087Z,74
2023-03-29T02:48:36.168Z,74
2023-03-29T02:48:56.124Z,74
2023-03-29T02:49:28.002Z,74
2023-03-29T02:50:00.011Z,74
2023-03-29T02:50:32.737Z,75
2023-03-29T02:51:04.557Z,75
2023-03-29T02:51:36.778Z,75
2023-03-29T02:52:07.899Z,75
2023-03-29T02:52:36.088Z,75
2023-03-29T02:52:55.986Z,75
2023-03-29T02:53:27.940Z,75
2023-03-29T02:54:00.280Z,75
2023-03-29T02:54:31.963Z,75
2023-03-29T02:55:05.658Z,75
2023-03-29T02:55:35.946Z,75
2023-03-29T02:56:07.887Z,75
2023-03-29T02:56:36.037Z,75
2023-03-29T02:56:55.938Z,75
2023-03-29T02:57:27.985Z,75
2023-03-29T02:57:59.748Z,75
2023-03-29T02:58:32.054Z,75
2023-03-29T02:59:04.226Z,76
2023-03-29T02:59:35.891Z,76
2023-03-29T03:00:09.003Z,76
2023-03-29T03:00:36.194Z,76
2023-03-29T03:00:56.212Z,76
2023-03-29T03:01:27.874Z,76
2023-03-29T03:02:00.100Z,76
2023-03-29T03:02:31.932Z,76
2023-03-29T03:03:04.652Z,76
2023-03-29T03:03:36.036Z,76
2023-03-29T03:04:07.997Z,76
2023-03-29T03:04:35.996Z,76
2023-03-29T03:04:55.880Z,76
2023-03-29T03:05:28.277Z,77
2023-03-29T03:05:59.816Z,77
2023-03-29T03:06:32.105Z,77
2023-03-29T03:07:04.194Z,77
2023-03-29T03:07:35.818Z,77
2023-03-29T03:08:08.435Z,77
2023-03-29T03:08:36.007Z,77
2023-03-29T03:08:55.897Z,77
2023-03-29T03:09:28.276Z,77
2023-03-29T03:09:59.828Z,77
2023-03-29T03:10:32.607Z,77
2023-03-29T03:11:04.445Z,77
2023-03-29T03:11:35.841Z,77
2023-03-29T03:12:08.539Z,78
2023-03-29T03:12:36.084Z,78
2023-03-29T03:12:55.757Z,78
2023-03-29T03:13:27.829Z,78
2023-03-29T03:13:59.835Z,78
2023-03-29T03:14:31.877Z,78
2023-03-29T03:15:06.186Z,78
2023-03-29T03:15:36.257Z,78
2023-03-29T03:16:08.092Z,78
2023-03-29T03:16:36.860Z,78
2023-03-29T03:16:55.756Z,78
2023-03-29T03:17:27.959Z,78
2023-03-29T03:17:59.811Z,78
2023-03-29T03:18:31.846Z,79
2023-03-29T03:19:04.006Z,78
2023-03-29T03:19:36.481Z,78
2023-03-29T03:20:08.533Z,78
2023-03-29T03:20:36.185Z,78
2023-03-29T03:20:56.255Z,79
2023-03-29T03:21:27.991Z,79
2023-03-29T03:21:59.855Z,79
2023-03-29T03:22:31.933Z,79
2023-03-29T03:23:04.102Z,79
2023-03-29T03:23:35.854Z,79
2023-03-29T03:24:07.858Z,79
2023-03-29T03:24:36.779Z,79
2023-03-29T03:24:55.855Z,79
2023-03-29T03:25:28.296Z,79
2023-03-29T03:25:59.874Z,79
2023-03-29T03:26:31.945Z,79
2023-03-29T03:27:04.071Z,79
2023-03-29T03:27:35.859Z,79
2023-03-29T03:28:07.889Z,79
2023-03-29T03:28:35.989Z,79
2023-03-29T03:28:55.955Z,79
2023-03-29T03:29:27.914Z,79
2023-03-29T03:29:59.806Z,79
2023-03-29T03:30:32.845Z,79
2023-03-29T03:31:04.190Z,79
2023-03-29T03:31:36.396Z,79
2023-03-29T03:32:08.028Z,79
2023-03-29T03:32:36.239Z,79
2023-03-29T03:32:55.858Z,79
2023-03-29T03:33:27.927Z,79
2023-03-29T03:33:59.804Z,79
2023-03-29T03:34:31.943Z,80
2023-03-29T03:35:06.267Z,79
2023-03-29T03:35:35.943Z,79
2023-03-29T03:36:07.960Z,79
2023-03-29T03:36:36.696Z,79
2023-03-29T03:36:55.973Z,80
2023-03-29T03:37:27.985Z,80
2023-03-29T03:37:59.897Z,80
2023-03-29T03:38:32.051Z,79
2023-03-29T03:39:05.288Z,79
2023-03-29T03:39:35.870Z,80
2023-03-29T03:40:08.602Z,80
2023-03-29T03:40:36.006Z,80
2023-03-29T03:40:56.174Z,80
2023-03-29T03:41:27.891Z,80
2023-03-29T03:41:59.848Z,80
2023-03-29T03:42:31.904Z,80
2023-03-29T03:43:04.037Z,80
2023-03-29T03:43:36.267Z,80
2023-03-29T03:44:07.873Z,81
2023-03-29T03:44:36.262Z,81
2023-03-29T03:44:55.908Z,81
2023-03-29T03:45:29.128Z,81
2023-03-29T03:45:59.926Z,81
2023-03-29T03:46:32.143Z,81
2023-03-29T03:47:04.198Z,81
2023-03-29T03:47:36.000Z,81
2023-03-29T03:48:07.953Z,81
2023-03-29T03:48:36.142Z,81
2023-03-29T03:48:55.913Z,81
2023-03-29T03:49:28.083Z,81
2023-03-29T03:49:59.833Z,81
2023-03-29T03:50:32.663Z,81
2023-03-29T03:51:04.197Z,82
2023-03-29T03:51:35.937Z,81
2023-03-29T03:52:07.893Z,81
2023-03-29T03:52:36.090Z,81
2023-03-29T03:52:55.826Z,81
2023-03-29T03:53:28.192Z,81
2023-03-29T03:54:00.132Z,81
2023-03-29T03:54:31.955Z,82
2023-03-29T03:55:05.369Z,82
2023-03-29T03:55:35.919Z,82
2023-03-29T03:56:07.894Z,82
2023-03-29T03:56:36.067Z,82
2023-03-29T03:56:55.909Z,82
2023-03-29T03:57:28.176Z,82
2023-03-29T03:57:59.876Z,82
2023-03-29T03:58:31.970Z,82
2023-03-29T03:59:04.095Z,82
2023-03-29T03:59:35.933Z,82
2023-03-29T04:00:09.176Z,82
2023-03-29T04:00:35.992Z,82
2023-03-29T04:00:56.262Z,82
2023-03-29T04:01:27.866Z,82
2023-03-29T04:01:59.878Z,82
2023-03-29T04:02:32.552Z,82
2023-03-29T04:03:04.267Z,82
2023-03-29T04:03:35.925Z,82
2023-03-29T04:04:07.943Z,82
2023-03-29T04:04:36.566Z,82
2023-03-29T04:04:56.051Z,82
2023-03-29T04:05:29.329Z,82
2023-03-29T04:05:59.876Z,82
2023-03-29T04:06:32.309Z,82
2023-03-29T04:07:04.219Z,82
2023-03-29T04:07:36.137Z,82
2023-03-29T04:08:07.853Z,82
2023-03-29T04:08:36.124Z,82
2023-03-29T04:08:55.875Z,82
2023-03-29T04:09:27.854Z,82
2023-03-29T04:09:59.817Z,82
2023-03-29T04:10:32.415Z,82
2023-03-29T04:11:04.320Z,82
2023-03-29T04:11:36.433Z,82
2023-03-29T04:12:07.893Z,82
2023-03-29T04:12:36.872Z,82
2023-03-29T04:12:55.973Z,82
2023-03-29T04:13:28.043Z,82
2023-03-29T04:13:59.872Z,83
2023-03-29T04:14:31.909Z,83
2023-03-29T04:15:06.057Z,83
2023-03-29T04:15:36.691Z,83
2023-03-29T04:16:08.057Z,83
2023-03-29T04:16:36.071Z,83
2023-03-29T04:16:55.861Z,83
2023-03-29T04:17:28.026Z,83
2023-03-29T04:18:00.039Z,83
2023-03-29T04:18:32.033Z,83
2023-03-29T04:19:04.141Z,83
2023-03-29T04:19:35.843Z,83
2023-03-29T04:20:08.502Z,83
2023-03-29T04:20:36.197Z,83
2023-03-29T04:20:56.306Z,83
2023-03-29T04:21:27.842Z,83
2023-03-29T04:21:59.825Z,83
2023-03-29T04:22:31.954Z,83
2023-03-29T04:23:04.208Z,83
2023-03-29T04:23:35.852Z,83
2023-03-29T04:24:07.911Z,83
2023-03-29T04:24:36.208Z,83
2023-03-29T04:24:55.871Z,83
2023-03-29T04:25:29.130Z,84
2023-03-29T04:25:59.925Z,84
2023-03-29T04:26:32.015Z,84
2023-03-29T04:27:04.470Z,84
2023-03-29T04:27:35.876Z,84
2023-03-29T04:28:07.961Z,84
2023-03-29T04:28:36.112Z,84
2023-03-29T04:28:55.949Z,84
2023-03-29T04:29:27.995Z,84
2023-03-29T04:29:59.843Z,84
2023-03-29T04:30:33.085Z,84
2023-03-29T04:31:04.384Z,84
2023-03-29T04:31:35.906Z,84
2023-03-29T04:32:08.043Z,84
2023-03-29T04:32:36.176Z,84
2023-03-29T04:32:55.910Z,84
2023-03-29T04:33:27.879Z,84
2023-03-29T04:34:00.487Z,84
2023-03-29T04:34:31.912Z,84
2023-03-29T04:35:05.477Z,84
2023-03-29T04:35:36.572Z,85
2023-03-29T04:36:08.070Z,85
2023-03-29T04:36:36.942Z,85
2023-03-29T04:36:55.925Z,85
2023-03-29T04:37:27.907Z,85
2023-03-29T04:38:00.131Z,85
2023-03-29T04:38:31.962Z,85
2023-03-29T04:39:04.079Z,85
2023-03-29T04:39:37.114Z,85
2023-03-29T04:40:08.711Z,85
2023-03-29T04:40:36.136Z,85
2023-03-29T04:40:56.243Z,85
2023-03-29T04:41:27.916Z,85
2023-03-29T04:41:59.917Z,85
2023-03-29T04:42:32.041Z,85
2023-03-29T04:43:04.047Z,85
2023-03-29T04:43:37.841Z,85
2023-03-29T04:44:07.961Z,85
2023-03-29T04:44:36.092Z,85
2023-03-29T04:44:55.947Z,85
2023-03-29T04:45:29.231Z,85
2023-03-29T04:46:00.281Z,85
2023-03-29T04:46:32.020Z,85
2023-03-29T04:47:04.129Z,85
2023-03-29T04:47:36.698Z,85
2023-03-29T04:48:07.891Z,85
2023-03-29T04:48:36.099Z,85
2023-03-29T04:48:55.971Z,85
2023-03-29T04:49:27.872Z,85
2023-03-29T04:49:59.841Z,85
2023-03-29T04:50:32.416Z,85
2023-03-29T04:51:04.285Z,85
2023-03-29T04:51:36.213Z,85
2023-03-29T04:52:08.114Z,85
2023-03-29T04:52:36.450Z,85
2023-03-29T04:52:55.941Z,85
2023-03-29T04:53:27.919Z,85
2023-03-29T04:53:59.872Z,85
2023-03-29T04:54:31.961Z,85
2023-03-29T04:55:05.335Z,85
2023-03-29T04:55:35.863Z,85
2023-03-29T04:56:08.151Z,85
2023-03-29T04:56:36.008Z,85
2023-03-29T04:56:56.434Z,85
2023-03-29T04:57:27.947Z,85
2023-03-29T04:57:59.939Z,85
2023-03-29T04:58:32.646Z,85
2023-03-29T04:59:04.259Z,85
2023-03-29T04:59:35.971Z,85
2023-03-29T05:00:09.394Z,85
2023-03-29T05:00:36.079Z,85
2023-03-29T05:00:56.588Z,85
2023-03-29T05:01:27.994Z,85
2023-03-29T05:02:00.107Z,85
2023-03-29T05:02:31.967Z,85
2023-03-29T05:03:04.610Z,85
2023-03-29T05:03:35.888Z,85
2023-03-29T05:04:10.162Z,85
2023-03-29T05:04:37.032Z,85
2023-03-29T05:04:55.938Z,85
2023-03-29T05:05:28.455Z,85
2023-03-29T05:06:00.694Z,85
2023-03-29T05:06:32.380Z,85
2023-03-29T05:07:04.474Z,85
2023-03-29T05:07:36.384Z,85
2023-03-29T05:08:08.127Z,85
2023-03-29T05:08:36.322Z,85
2023-03-29T05:08:56.191Z,85
2023-03-29T05:09:28.102Z,85
2023-03-29T05:10:00.979Z,85
2023-03-29T05:10:32.247Z,85
2023-03-29T05:11:04.730Z,85
2023-03-29T05:11:36.302Z,85
2023-03-29T05:12:08.224Z,85
2023-03-29T05:12:36.309Z,85
2023-03-29T05:12:56.022Z,85
2023-03-29T05:13:28.119Z,85
2023-03-29T05:14:00.130Z,85
2023-03-29T05:14:32.154Z,85
2023-03-29T05:15:07.040Z,85
2023-03-29T05:15:36.117Z,85
2023-03-29T05:16:08.426Z,85
2023-03-29T05:16:36.270Z,85
2023-03-29T05:16:56.123Z,85
2023-03-29T05:17:28.190Z,85
2023-03-29T05:18:00.162Z,85
2023-03-29T05:18:32.227Z,85
2023-03-29T05:19:04.487Z,85
2023-03-29T05:19:36.767Z,85
2023-03-29T05:20:09.465Z,85
2023-03-29T05:20:36.857Z,85
2023-03-29T05:20:56.563Z,85
2023-03-29T05:21:28.294Z,85
2023-03-29T05:22:00.153Z,85
2023-03-29T05:22:32.274Z,85
2023-03-29T05:23:04.582Z,85
2023-03-29T05:23:36.643Z,85
2023-03-29T05:24:08.690Z,85
2023-03-29T05:24:36.357Z,85
2023-03-29T05:24:56.129Z,85
2023-03-29T05:25:28.504Z,85
2023-03-29T05:26:00.160Z,85
2023-03-29T05:26:32.296Z,85
2023-03-29T05:27:04.755Z,85
2023-03-29T05:27:36.549Z,85
2023-03-29T05:28:08.200Z,85
2023-03-29T05:28:36.498Z,85
2023-03-29T05:28:56.111Z,85
2023-03-29T05:29:28.345Z,85
2023-03-29T05:30:01.275Z,85
2023-03-29T05:30:32.205Z,85
2023-03-29T05:31:04.762Z,85
2023-03-29T05:31:36.187Z,85
2023-03-29T05:32:08.480Z,85
2023-03-29T05:32:36.330Z,85
2023-03-29T05:32:56.199Z,85
2023-03-29T05:33:28.185Z,85
2023-03-29T05:34:00.050Z,85
2023-03-29T05:34:32.311Z,85
2023-03-29T05:35:06.221Z,85
2023-03-29T05:35:36.165Z,85
2023-03-29T05:36:08.280Z,85
2023-03-29T05:36:36.270Z,85
2023-03-29T05:36:56.781Z,85
2023-03-29T05:37:28.081Z,85
2023-03-29T05:38:00.512Z,85
2023-03-29T05:38:32.438Z,85
2023-03-29T05:39:04.667Z,85
2023-03-29T05:39:37.721Z,85
2023-03-29T05:40:08.719Z,85
2023-03-29T05:40:36.472Z,85
2023-03-29T05:40:56.581Z,85
2023-03-29T05:41:28.060Z,85
2023-03-29T05:42:00.164Z,85
2023-03-29T05:42:32.398Z,85
2023-03-29T05:43:04.303Z,85
2023-03-29T05:43:36.289Z,85
2023-03-29T05:44:08.173Z,85
2023-03-29T05:44:36.317Z,85
2023-03-29T05:44:56.146Z,85
2023-03-29T05:45:30.133Z,85
2023-03-29T05:46:00.230Z,85
2023-03-29T05:46:32.194Z,85
2023-03-29T05:47:04.358Z,85
2023-03-29T05:47:38.282Z,85
2023-03-29T05:48:08.478Z,85
2023-03-29T05:48:36.413Z,85
2023-03-29T05:48:56.521Z,85
2023-03-29T05:49:28.051Z,85
2023-03-29T05:50:00.741Z,85
2023-03-29T05:50:32.418Z,85
2023-03-29T05:51:04.471Z,85
2023-03-29T05:51:36.136Z,85
2023-03-29T05:52:08.275Z,85
2023-03-29T05:52:36.794Z,85
2023-03-29T05:52:56.142Z,85
2023-03-29T05:53:28.126Z,85
2023-03-29T05:54:00.133Z,85
2023-03-29T05:54:32.212Z,85
2023-03-29T05:55:05.884Z,85
2023-03-29T05:55:36.922Z,85
2023-03-29T05:56:08.290Z,85
2023-03-29T05:56:36.451Z,85
2023-03-29T05:56:56.223Z,85
2023-03-29T05:57:28.138Z,85
2023-03-29T05:58:01.321Z,85
2023-03-29T05:58:32.262Z,85
2023-03-29T05:59:04.587Z,85
2023-03-29T05:59:36.252Z,85
2023-03-29T06:00:09.485Z,85
2023-03-29T06:00:36.469Z,85
2023-03-29T06:00:56.963Z,85
2023-03-29T06:01:28.241Z,85
2023-03-29T06:02:00.561Z,85
2023-03-29T06:02:32.312Z,85
2023-03-29T06:03:14.067Z,85
2023-03-29T06:03:36.358Z,85
2023-03-29T06:04:08.205Z,85
2023-03-29T06:04:36.322Z,85
2023-03-29T06:04:56.332Z,85
2023-03-29T06:05:29.598Z,85
2023-03-29T06:06:00.155Z,85
2023-03-29T06:06:32.294Z,85
2023-03-29T06:07:04.486Z,85
2023-03-29T06:07:36.655Z,85
2023-03-29T06:08:08.216Z,85
2023-03-29T06:08:36.573Z,85
2023-03-29T06:08:56.136Z,85
2023-03-29T06:09:28.259Z,85
2023-03-29T06:10:00.152Z,84
2023-03-29T06:10:32.739Z,84
2023-03-29T06:11:05.217Z,84
2023-03-29T06:11:36.093Z,84
2023-03-29T06:12:08.330Z,84
2023-03-29T06:12:36.281Z,84
2023-03-29T06:12:56.214Z,84
2023-03-29T06:13:28.162Z,84
2023-03-29T06:14:00.108Z,84
2023-03-29T06:14:32.932Z,84
2023-03-29T06:15:06.694Z,84
2023-03-29T06:15:36.249Z,84
2023-03-29T06:16:08.315Z,84
2023-03-29T06:16:36.596Z,84
2023-03-29T06:16:56.224Z,84
2023-03-29T06:17:28.289Z,84
2023-03-29T06:18:00.396Z,84
2023-03-29T06:18:32.487Z,84
2023-03-29T06:19:04.465Z,84
2023-03-29T06:19:36.745Z,84
2023-03-29T06:20:08.862Z,84
2023-03-29T06:20:36.636Z,84
2023-03-29T06:20:56.542Z,84
2023-03-29T06:21:28.195Z,84
2023-03-29T06:22:00.102Z,84
2023-03-29T06:22:32.237Z,85
2023-03-29T06:23:04.293Z,84
2023-03-29T06:23:36.507Z,85
2023-03-29T06:24:08.121Z,85
2023-03-29T06:24:36.726Z,85
2023-03-29T06:24:56.176Z,85
2023-03-29T06:25:28.579Z,85
2023-03-29T06:26:00.322Z,85
2023-03-29T06:26:32.157Z,85
2023-03-29T06:27:04.424Z,85
2023-03-29T06:27:37.030Z,85
2023-03-29T06:28:08.253Z,85
2023-03-29T06:28:36.344Z,85
2023-03-29T06:28:56.186Z,85
2023-03-29T06:29:28.286Z,85
2023-03-29T06:30:01.541Z,85
2023-03-29T06:30:32.777Z,85
2023-03-29T06:31:04.569Z,85
2023-03-29T06:31:36.827Z,85
2023-03-29T06:32:08.240Z,85
2023-03-29T06:32:36.541Z,85
2023-03-29T06:32:56.345Z,85
2023-03-29T06:33:28.098Z,85
2023-03-29T06:34:00.026Z,85
2023-03-29T06:34:32.508Z,85
2023-03-29T06:35:05.785Z,85
2023-03-29T06:35:36.703Z,85
2023-03-29T06:36:08.415Z,85
2023-03-29T06:36:36.368Z,85
2023-03-29T06:36:56.255Z,85
2023-03-29T06:37:29.361Z,85
2023-03-29T06:38:00.348Z,85
2023-03-29T06:38:32.265Z,85
2023-03-29T06:39:04.324Z,85
2023-03-29T06:39:36.165Z,85
2023-03-29T06:40:08.708Z,85
2023-03-29T06:40:36.983Z,85
2023-03-29T06:40:56.727Z,85
2023-03-29T06:41:28.154Z,85
2023-03-29T06:42:05.195Z,85
2023-03-29T06:42:32.497Z,85
2023-03-29T06:43:04.300Z,85
2023-03-29T06:43:36.038Z,85
2023-03-29T06:44:08.361Z,85
2023-03-29T06:44:36.479Z,85
2023-03-29T06:44:56.408Z,85
2023-03-29T06:45:29.468Z,85
2023-03-29T06:46:00.208Z,85
2023-03-29T06:46:32.983Z,85
2023-03-29T06:47:04.646Z,85
2023-03-29T06:47:37.214Z,84
2023-03-29T06:48:08.306Z,84
2023-03-29T06:48:36.731Z,84
2023-03-29T06:48:56.299Z,84
2023-03-29T06:49:28.182Z,84
2023-03-29T06:50:00.167Z,84
2023-03-29T06:50:32.593Z,84
2023-03-29T06:51:04.612Z,84
2023-03-29T06:51:37.007Z,84
2023-03-29T06:52:08.276Z,84
2023-03-29T06:52:36.276Z,84
2023-03-29T06:53:12.450Z,84
2023-03-29T06:53:36.230Z,84
2023-03-29T06:54:00.029Z,84
2023-03-29T06:54:32.187Z,84
2023-03-29T06:55:05.747Z,84
2023-03-29T06:55:36.020Z,84
2023-03-29T06:56:08.269Z,84
2023-03-29T06:56:36.749Z,84
2023-03-29T06:56:56.208Z,84
2023-03-29T06:57:28.150Z,84
2023-03-29T06:58:02.277Z,84
2023-03-29T06:58:32.256Z,84
2023-03-29T06:59:04.640Z,84
2023-03-29T06:59:36.079Z,84
2023-03-29T07:00:09.498Z,84
2023-03-29T07:00:36.461Z,84
2023-03-29T07:00:56.751Z,84
2023-03-29T07:01:28.188Z,84
2023-03-29T07:02:00.126Z,84
2023-03-29T07:02:32.219Z,84
2023-03-29T07:03:04.249Z,84
2023-03-29T07:03:36.232Z,84
2023-03-29T07:04:08.356Z,83
2023-03-29T07:04:36.326Z,83
2023-03-29T07:04:56.427Z,83
2023-03-29T07:05:28.626Z,83
2023-03-29T07:06:00.173Z,83
2023-03-29T07:06:32.194Z,84
2023-03-29T07:07:04.328Z,84
2023-03-29T07:07:36.231Z,84
2023-03-29T07:08:08.184Z,83